Sauk Centre, MN (56378)

2:35 PM CST on January 23, 2017 (GMT -0600)
Sauk Centre | | Change Station

Elev 1243 ft 45.71 °N, 94.93 °W | Updated 24 minutes ago

Overcast
Overcast
31 °F
Feels Like 26 °F
N
5
Wind Variable Wind from North

Today
High -- | Low -- °F
--% Chance of Precip.
Yesterday
High -- | Low -- °F
Precip. -- in
Pressure 29.79 in
Visibility 10.0 miles
Clouds Overcast 1200 ft
Windchill 26 °F
Dew Point 28 °F
Humidity 87%
Rainfall 0.00 in
Snow Depth Not available.
7:50 AM 5:13 PM
Waning Crescent, 16% visible
METAR KD39 232011Z AUTO 35004KT 10SM OVC012 00/M02 A2979 RMK AO2 T10051025
Pressure 29.79 in
Visibility 10.0 miles
Clouds Overcast 1200 ft
Windchill 26 °F
Dew Point 28 °F
Humidity 87%
Rainfall 0.00 in
Snow Depth Not available.
7:50 AM 5:13 PM
Waning Crescent, 16% visible
METAR KD39 232011Z AUTO 35004KT 10SM OVC012 00/M02 A2979 RMK AO2 T10051025

Get Your Daily Forecast Email!

Thanks for signing up!

Be on the lookout for a verification email in your inbox.

You'll start receiving the daily forecast at 8 AM.

×

10-Day Weather Forecast

Almanac

Astronomy

Jan. 23, 2017 Rise Set
Actual Time
Civil Twilight
Nautical Twilight
Astronomical Twilight
Moon
Length of Visible Light
Length of Day
Tomorrow will be .
, % of the Moon is Illuminated

Today's Extremes

State Highs State Lows

Community

WunderPhotos

Upload Photos

1,962,540 photos uploaded!

WunderBlog® & News

Nearby

Air Quality

  Air Quality AQ Index Pollutant
Not available.

Snow Depth

Station Depth Elevation

Earthquake Activity

City Distance Mag. Time & Date
Minimum magnitude displayed is 2.5.

Coastal Water Temperatures

Place Temperature

Stations

Nearby Weather Stations

Station Location Temp. Windchill Dew Point Humidity Wind Precip. Elev Updated Type
                   

Watches & Warnings

There are currently no watches in effect.